Terminal Aerodrome Forecast
Issued by NWS

Home | Current Version | Previous Version | Text Only | Print | Product List | Glossary On
Versions: 1 2 3 4 5 6 7 8 9 10 11 12 13 14 15 16 17
000
FTUS46 KLOX 040540
TAFPRB
TAF
KPRB 040540Z 0406/0506 29008KT P6SM SCT200
     FM041500 VRB03KT P6SM SCT150
     FM042100 21012KT P6SM SCT150
     FM050500 30010KT P6SM SKC=

USA.gov is the U.S. government's official web portal to all federal, state and local government web resources and services.